createdAt,value
2017-08-04T00:02:16.396Z,21.00
2017-08-04T00:04:43.923Z,21.00
2017-08-04T00:07:11.475Z,21.00
2017-08-04T00:09:39.007Z,20.90
2017-08-04T00:12:06.550Z,20.70
2017-08-04T00:14:34.077Z,20.70
2017-08-04T00:19:35.635Z,20.80
2017-08-04T00:22:03.188Z,20.90
2017-08-04T00:24:30.728Z,20.90
2017-08-04T00:26:59.028Z,20.80
2017-08-04T00:29:26.566Z,20.80
2017-08-04T00:31:54.868Z,20.80
2017-08-04T00:34:22.406Z,20.80
2017-08-04T00:36:49.940Z,20.80
2017-08-04T00:39:17.488Z,20.90
2017-08-04T00:41:45.034Z,20.90
2017-08-04T00:44:12.593Z,20.70
2017-08-04T00:46:40.131Z,20.70
2017-08-04T00:49:07.675Z,20.80
2017-08-04T00:51:35.199Z,21.00
2017-08-04T00:54:02.713Z,20.60
2017-08-04T00:56:30.258Z,20.40
2017-08-04T00:58:57.796Z,20.60
2017-08-04T01:01:25.348Z,20.60
2017-08-04T01:03:52.873Z,20.60
2017-08-04T01:06:20.411Z,20.50
2017-08-04T01:08:47.940Z,20.30
2017-08-04T01:11:15.482Z,20.30
2017-08-04T01:13:43.022Z,20.20
2017-08-04T01:16:10.563Z,20.20
2017-08-04T01:18:38.107Z,20.30
2017-08-04T01:21:05.630Z,20.40
2017-08-04T01:23:33.166Z,20.30
2017-08-04T01:26:00.687Z,20.40
2017-08-04T01:28:28.236Z,20.40
2017-08-04T01:30:55.783Z,20.30
2017-08-04T01:33:23.327Z,20.30
2017-08-04T01:35:50.867Z,20.30
2017-08-04T01:38:18.420Z,20.50
2017-08-04T01:40:45.946Z,20.60
2017-08-04T01:43:13.473Z,20.60
2017-08-04T01:45:41.018Z,20.70
2017-08-04T01:48:08.554Z,20.70
2017-08-04T01:50:36.111Z,20.60
2017-08-04T01:53:03.648Z,20.70
2017-08-04T01:55:31.200Z,20.70
2017-08-04T01:57:58.726Z,20.70
2017-08-04T02:00:26.275Z,20.70
2017-08-04T02:02:53.790Z,20.50
2017-08-04T02:05:21.314Z,20.60
2017-08-04T02:07:48.862Z,20.60
2017-08-04T02:10:16.412Z,20.60
2017-08-04T02:12:43.960Z,20.60
2017-08-04T02:15:11.496Z,20.40
2017-08-04T02:17:39.039Z,20.30
2017-08-04T02:20:06.558Z,20.20
2017-08-04T02:22:34.107Z,20.20
2017-08-04T02:25:01.643Z,20.30
2017-08-04T02:27:29.198Z,20.30
2017-08-04T02:29:56.726Z,20.20
2017-08-04T02:32:25.035Z,19.90
2017-08-04T02:34:52.588Z,20.00
2017-08-04T02:37:20.128Z,20.30
2017-08-04T02:39:48.439Z,20.10
2017-08-04T02:42:15.963Z,20.10
2017-08-04T02:44:44.283Z,20.10
2017-08-04T02:47:11.850Z,20.10
2017-08-04T02:49:39.395Z,20.00
2017-08-04T02:52:06.914Z,20.00
2017-08-04T02:54:34.453Z,19.80
2017-08-04T02:57:02.008Z,19.80
2017-08-04T02:59:29.544Z,19.90
2017-08-04T03:01:57.083Z,19.90
2017-08-04T03:04:24.612Z,19.90
2017-08-04T03:06:52.161Z,19.90
2017-08-04T03:09:19.683Z,19.90
2017-08-04T03:11:47.219Z,19.70
2017-08-04T03:14:14.751Z,19.80
2017-08-04T03:16:43.063Z,19.50
2017-08-04T03:19:10.599Z,19.50
2017-08-04T03:21:38.915Z,19.50
2017-08-04T03:24:06.454Z,19.40
2017-08-04T03:26:33.979Z,19.50
2017-08-04T03:29:01.529Z,19.50
2017-08-04T03:31:29.046Z,19.70
2017-08-04T03:33:56.596Z,19.60
2017-08-04T03:36:24.128Z,19.40
2017-08-04T03:38:51.679Z,19.30
2017-08-04T03:41:19.206Z,19.20
2017-08-04T03:43:46.761Z,19.20
2017-08-04T03:46:14.299Z,19.50
2017-08-04T03:48:41.848Z,19.30
2017-08-04T03:51:09.379Z,19.30
2017-08-04T03:53:36.931Z,19.20
2017-08-04T03:56:04.471Z,19.20
2017-08-04T03:58:31.993Z,19.30
2017-08-04T04:00:59.527Z,19.30
2017-08-04T04:03:27.816Z,19.50
2017-08-04T04:05:56.136Z,19.70
2017-08-04T04:08:23.672Z,19.60
2017-08-04T04:10:51.205Z,19.80
2017-08-04T04:13:19.501Z,19.90
2017-08-04T04:15:47.042Z,19.90
2017-08-04T04:18:14.569Z,19.80
2017-08-04T04:20:42.094Z,19.90
2017-08-04T04:23:09.655Z,20.00
2017-08-04T04:25:37.175Z,20.00
2017-08-04T04:28:04.715Z,19.90
2017-08-04T04:30:32.252Z,19.90
2017-08-04T04:32:59.790Z,19.80
2017-08-04T04:35:27.320Z,19.90
2017-08-04T04:37:54.875Z,20.10
2017-08-04T04:42:56.249Z,20.20
2017-08-04T04:45:23.783Z,20.30
2017-08-04T04:47:51.307Z,20.40
2017-08-04T04:50:18.842Z,20.30
2017-08-04T04:52:46.367Z,20.40
2017-08-04T04:55:13.921Z,20.20
2017-08-04T04:57:41.456Z,20.30
2017-08-04T05:00:09.005Z,20.20
2017-08-04T05:02:36.540Z,20.60
2017-08-04T05:05:04.869Z,20.80
2017-08-04T05:07:32.386Z,20.80
2017-08-04T05:09:59.934Z,20.80
2017-08-04T05:12:27.453Z,20.80
2017-08-04T05:14:54.978Z,20.80
2017-08-04T05:17:22.546Z,20.80
2017-08-04T05:19:50.087Z,20.90
2017-08-04T05:22:17.647Z,21.20
2017-08-04T05:24:45.182Z,21.50
2017-08-04T05:27:12.732Z,21.70
2017-08-04T05:29:40.263Z,21.70
2017-08-04T05:32:07.798Z,21.90
2017-08-04T05:34:35.323Z,22.00
2017-08-04T05:37:02.870Z,22.10
2017-08-04T05:39:30.399Z,22.10
2017-08-04T05:41:57.958Z,21.90
2017-08-04T05:44:25.478Z,21.90
2017-08-04T05:46:52.995Z,22.00
2017-08-04T05:49:20.559Z,22.30
2017-08-04T05:51:48.098Z,22.30
2017-08-04T05:54:15.656Z,22.20
2017-08-04T05:56:43.177Z,22.10
2017-08-04T05:59:11.497Z,22.20
2017-08-04T06:01:39.036Z,22.20
2017-08-04T06:04:06.584Z,22.00
2017-08-04T06:06:34.106Z,22.30
2017-08-04T06:09:01.628Z,22.00
2017-08-04T06:11:29.175Z,21.90
2017-08-04T06:13:56.708Z,21.80
2017-08-04T06:16:25.019Z,22.10
2017-08-04T06:18:52.535Z,22.10
2017-08-04T06:21:20.085Z,22.30
2017-08-04T06:23:47.614Z,22.40
2017-08-04T06:26:15.155Z,22.10
2017-08-04T06:28:42.686Z,22.40
2017-08-04T06:31:11.006Z,22.30
2017-08-04T06:33:38.536Z,22.30
2017-08-04T06:36:06.817Z,22.70
2017-08-04T06:38:34.377Z,22.70
2017-08-04T06:41:01.912Z,23.00
2017-08-04T06:43:29.451Z,22.70
2017-08-04T06:45:56.973Z,23.30
2017-08-04T06:48:36.224Z,23.00
2017-08-04T06:51:15.370Z,23.10
2017-08-04T06:53:54.478Z,22.70
2017-08-04T06:56:23.136Z,22.00
2017-08-04T07:13:43.979Z,22.50
2017-08-04T07:16:11.501Z,23.10
2017-08-04T07:18:39.807Z,22.90
2017-08-04T07:21:07.354Z,22.80
2017-08-04T07:23:34.888Z,23.60
2017-08-04T07:26:02.430Z,23.50
2017-08-04T07:28:29.957Z,23.40
2017-08-04T07:30:57.503Z,23.80
2017-08-04T07:33:25.037Z,23.60
2017-08-04T07:35:53.344Z,24.00
2017-08-04T07:38:20.894Z,23.90
2017-08-04T08:55:15.666Z,25.40
2017-08-04T08:57:43.214Z,25.00
2017-08-04T09:00:10.748Z,25.50
2017-08-04T09:02:38.283Z,25.40
2017-08-04T09:05:06.587Z,25.00
2017-08-04T09:07:34.110Z,25.10
2017-08-04T09:10:02.436Z,26.60
2017-08-04T09:12:29.964Z,26.50
2017-08-04T09:14:57.510Z,26.00
2017-08-04T09:17:25.033Z,27.10
2017-08-04T09:19:52.574Z,27.20
2017-08-04T09:22:20.109Z,28.20
2017-08-04T09:24:47.661Z,26.50
2017-08-04T09:27:15.955Z,26.50
2017-08-04T09:29:43.500Z,26.50
2017-08-04T09:32:11.056Z,26.10
2017-08-04T09:34:39.361Z,26.40
2017-08-04T09:37:06.902Z,26.40
2017-08-04T09:39:34.424Z,26.00
2017-08-04T09:42:01.972Z,25.80
2017-08-04T09:44:29.504Z,26.00
2017-08-04T09:46:57.059Z,26.70
2017-08-04T09:59:21.637Z,26.10
2017-08-04T10:06:46.935Z,28.00
2017-08-04T10:09:14.465Z,28.20
2017-08-04T10:11:41.998Z,27.00
2017-08-04T10:14:09.523Z,29.80
2017-08-04T10:16:37.822Z,28.60
2017-08-04T10:19:05.342Z,27.40
2017-08-04T10:21:32.890Z,28.00
2017-08-04T10:28:59.346Z,25.80
2017-08-04T10:31:26.875Z,25.90
2017-08-04T10:33:54.428Z,26.90
2017-08-04T10:36:23.091Z,26.80
2017-08-04T11:30:57.888Z,26.70
2017-08-04T11:33:25.439Z,26.90
2017-08-04T12:03:10.722Z,27.00
2017-08-04T12:05:38.275Z,26.60
2017-08-04T12:08:06.561Z,27.70
2017-08-04T12:10:34.120Z,27.70
2017-08-04T12:13:02.412Z,28.00
2017-08-04T12:15:29.957Z,28.10
2017-08-04T12:17:58.250Z,27.80
2017-08-04T12:20:25.800Z,28.10
2017-08-04T12:45:14.115Z,28.80
2017-08-04T12:47:41.656Z,28.40
2017-08-04T13:07:31.412Z,27.80
2017-08-04T13:52:11.199Z,27.10
2017-08-04T14:24:25.397Z,26.60
2017-08-04T14:26:52.918Z,26.50
2017-08-04T14:29:21.226Z,26.80
2017-08-04T15:04:04.933Z,25.80
2017-08-04T15:09:01.352Z,25.20
2017-08-04T15:11:28.901Z,25.50
2017-08-04T15:13:56.422Z,25.80
2017-08-04T15:23:50.615Z,25.90
2017-08-04T15:26:18.174Z,25.90
2017-08-04T15:28:45.708Z,25.80
2017-08-04T15:31:14.105Z,26.10
2017-08-04T15:33:41.648Z,26.10
2017-08-04T15:36:09.195Z,26.30
2017-08-04T15:38:37.495Z,26.30
2017-08-04T15:41:05.046Z,26.20
2017-08-04T15:43:32.575Z,26.70
2017-08-04T15:50:58.805Z,25.50
2017-08-04T15:53:26.335Z,25.50
2017-08-04T15:55:53.872Z,25.50
2017-08-04T15:58:22.182Z,25.60
2017-08-04T16:00:49.707Z,25.30
2017-08-04T16:03:17.281Z,25.50
2017-08-04T16:05:45.596Z,25.80
2017-08-04T16:08:13.151Z,25.80
2017-08-04T16:10:40.669Z,25.80
2017-08-04T16:13:08.236Z,25.70
2017-08-04T16:15:36.540Z,25.60
2017-08-04T16:18:04.102Z,25.50
2017-08-04T16:20:31.637Z,25.80
2017-08-04T16:22:59.964Z,25.50
2017-08-04T16:25:27.498Z,25.60
2017-08-04T16:27:55.034Z,25.50
2017-08-04T16:35:20.327Z,25.10
2017-08-04T16:37:47.853Z,25.10
2017-08-04T16:40:15.392Z,25.10
2017-08-04T16:42:42.915Z,24.80
2017-08-04T16:45:10.472Z,24.90
2017-08-04T16:47:38.010Z,24.80
2017-08-04T16:50:05.576Z,24.80
2017-08-04T16:52:33.107Z,25.10
2017-08-04T16:55:01.792Z,25.20
2017-08-04T16:57:29.331Z,24.90
